createdAt,value
2023-04-14T00:02:00.654Z,7.10
2023-04-14T00:04:27.663Z,7.10
2023-04-14T00:06:57.064Z,7.10
2023-04-14T00:09:24.051Z,7.10
2023-04-14T00:11:51.024Z,7.00
2023-04-14T00:14:17.819Z,7.10
2023-04-14T00:16:46.370Z,7.00
2023-04-14T00:19:13.151Z,7.00
2023-04-14T00:21:39.993Z,7.00
2023-04-14T00:24:06.720Z,7.00
2023-04-14T00:26:33.546Z,7.00
2023-04-14T00:29:01.224Z,7.00
2023-04-14T00:31:28.288Z,6.90
2023-04-14T00:33:55.138Z,7.00
2023-04-14T00:36:21.884Z,6.90
2023-04-14T00:38:48.716Z,6.90
2023-04-14T00:41:15.537Z,6.80
2023-04-14T00:43:42.267Z,6.80
2023-04-14T00:46:09.462Z,6.80
2023-04-14T00:48:36.551Z,6.70
2023-04-14T00:51:04.253Z,6.70
2023-04-14T00:53:32.701Z,6.70
2023-04-14T00:55:59.990Z,6.70
2023-04-14T00:58:27.399Z,6.70
2023-04-14T01:00:56.120Z,6.70
2023-04-14T01:03:24.661Z,6.70
2023-04-14T01:05:51.825Z,6.60
2023-04-14T01:08:20.645Z,6.60
2023-04-14T01:11:04.657Z,6.60
2023-04-14T01:14:07.032Z,6.60
2023-04-14T01:16:36.703Z,6.60
2023-04-14T01:19:18.794Z,6.50
2023-04-14T01:21:49.964Z,6.50
2023-04-14T01:24:16.666Z,6.50
2023-04-14T01:26:45.374Z,6.50
2023-04-14T01:29:39.242Z,6.40
2023-04-14T01:32:18.681Z,6.40
2023-04-14T01:34:56.570Z,6.40
2023-04-14T01:37:34.353Z,6.40
2023-04-14T01:40:05.842Z,6.40
2023-04-14T01:42:36.543Z,6.40
2023-04-14T01:45:11.790Z,6.30
2023-04-14T01:47:41.867Z,6.30
2023-04-14T01:50:11.354Z,6.30
2023-04-14T01:52:39.347Z,6.30
2023-04-14T01:55:07.726Z,6.20
2023-04-14T01:57:36.851Z,6.20
2023-04-14T02:00:05.929Z,6.20
2023-04-14T02:02:44.106Z,6.10
2023-04-14T02:05:13.382Z,6.10
2023-04-14T02:07:41.844Z,6.00
2023-04-14T02:10:11.112Z,6.00
2023-04-14T02:12:44.358Z,5.90
2023-04-14T02:15:13.701Z,5.90
2023-04-14T02:17:42.690Z,5.90
2023-04-14T02:20:12.983Z,5.80
2023-04-14T02:22:41.610Z,5.80
2023-04-14T02:25:09.140Z,5.70
2023-04-14T02:28:01.849Z,5.70
2023-04-14T02:30:44.362Z,5.70
2023-04-14T02:33:17.242Z,5.60
2023-04-14T02:36:09.695Z,5.60
2023-04-14T02:38:54.921Z,5.50
2023-04-14T02:41:30.394Z,5.50
2023-04-14T02:44:21.189Z,5.40
2023-04-14T02:47:03.905Z,5.40
2023-04-14T02:49:46.745Z,5.40
2023-04-14T02:52:17.516Z,5.30
2023-04-14T02:54:47.981Z,5.30
2023-04-14T02:57:16.326Z,5.20
2023-04-14T02:59:48.263Z,5.20
2023-04-14T03:02:17.555Z,5.20
2023-04-14T03:04:49.385Z,5.10
2023-04-14T03:07:33.196Z,5.10
2023-04-14T03:10:01.239Z,5.10
2023-04-14T03:12:29.260Z,5.00
2023-04-14T03:14:58.161Z,4.90
2023-04-14T03:17:26.364Z,4.90
2023-04-14T03:19:54.207Z,4.90
2023-04-14T03:22:22.156Z,4.90
2023-04-14T03:24:50.772Z,4.80
2023-04-14T03:27:22.752Z,4.80
2023-04-14T03:29:53.448Z,4.80
2023-04-14T03:32:26.531Z,4.70
2023-04-14T03:34:56.927Z,4.70
2023-04-14T03:37:28.719Z,4.60
2023-04-14T03:40:00.563Z,4.60
2023-04-14T03:42:29.995Z,4.60
2023-04-14T03:45:00.390Z,4.60
2023-04-14T03:47:31.729Z,4.50
2023-04-14T03:50:02.656Z,4.50
2023-04-14T03:52:35.394Z,4.40
2023-04-14T03:55:06.240Z,4.40
2023-04-14T03:57:37.451Z,4.40
2023-04-14T04:00:08.451Z,4.40
2023-04-14T04:02:43.019Z,4.40
2023-04-14T04:05:12.507Z,4.30
2023-04-14T04:07:41.420Z,4.30
2023-04-14T04:10:09.431Z,4.30
2023-04-14T04:12:37.592Z,4.20
2023-04-14T04:15:07.060Z,4.20
2023-04-14T04:17:35.053Z,4.20
2023-04-14T04:20:07.954Z,4.10
2023-04-14T04:22:38.107Z,4.10
2023-04-14T04:25:06.663Z,4.10
2023-04-14T04:27:36.482Z,4.10
2023-04-14T04:30:12.407Z,4.00
2023-04-14T04:32:39.699Z,4.00
2023-04-14T04:35:08.918Z,4.00
2023-04-14T04:37:37.681Z,4.00
2023-04-14T04:40:04.865Z,3.90
2023-04-14T04:42:32.103Z,3.90
2023-04-14T04:44:58.957Z,3.90
2023-04-14T04:47:26.171Z,3.90
2023-04-14T04:49:52.932Z,3.90
2023-04-14T04:52:19.630Z,3.80
2023-04-14T04:54:52.060Z,3.80
2023-04-14T04:57:19.698Z,3.80
2023-04-14T04:59:46.523Z,3.80
2023-04-14T05:02:13.483Z,3.70
2023-04-14T05:04:40.848Z,3.70
2023-04-14T05:07:07.826Z,3.70
2023-04-14T05:09:34.621Z,3.70
2023-04-14T05:12:01.935Z,3.70
2023-04-14T05:14:28.705Z,3.70
2023-04-14T05:16:55.653Z,3.70
2023-04-14T05:19:22.357Z,3.80
2023-04-14T05:21:49.131Z,3.70
2023-04-14T05:24:16.270Z,3.80
2023-04-14T05:29:12.743Z,3.80
2023-04-14T05:31:39.607Z,3.80
2023-04-14T05:34:06.558Z,3.90
2023-04-14T05:36:33.314Z,3.90
2023-04-14T05:39:00.250Z,3.90
2023-04-14T05:41:27.089Z,4.00
2023-04-14T05:43:53.834Z,4.00
2023-04-14T05:46:20.764Z,4.10
2023-04-14T05:48:47.497Z,4.10
2023-04-14T05:51:14.341Z,4.20
2023-04-14T05:53:41.126Z,4.30
2023-04-14T05:56:09.981Z,4.30
2023-04-14T05:58:36.982Z,4.40
2023-04-14T06:01:04.137Z,4.40
2023-04-14T06:03:31.631Z,4.50
2023-04-14T06:06:01.454Z,4.50
2023-04-14T06:08:30.132Z,4.60
2023-04-14T06:10:59.009Z,4.70
2023-04-14T06:13:25.791Z,4.80
2023-04-14T06:15:52.666Z,4.90
2023-04-14T06:18:19.492Z,5.00
2023-04-14T06:20:46.392Z,5.00
2023-04-14T06:23:13.156Z,5.10
2023-04-14T06:25:40.621Z,5.20
2023-04-14T06:28:07.685Z,5.30
2023-04-14T06:30:34.452Z,5.40
2023-04-14T06:33:04.692Z,5.40
2023-04-14T06:35:33.875Z,5.50
2023-04-14T06:38:03.437Z,5.60
2023-04-14T06:40:30.439Z,5.70
2023-04-14T06:42:57.204Z,5.70
2023-04-14T06:45:23.965Z,5.80
2023-04-14T06:47:51.385Z,5.80
2023-04-14T06:50:18.224Z,5.90
2023-04-14T06:52:45.447Z,6.00
2023-04-14T06:55:12.172Z,6.00
2023-04-14T06:57:38.900Z,6.10
2023-04-14T07:00:07.099Z,6.10
2023-04-14T07:02:33.921Z,6.20
2023-04-14T07:05:00.821Z,6.30
2023-04-14T07:07:27.561Z,6.30
2023-04-14T07:09:54.428Z,6.30
2023-04-14T07:12:21.185Z,6.40
2023-04-14T07:14:52.031Z,6.50
2023-04-14T07:17:19.682Z,6.50
2023-04-14T07:19:46.918Z,6.60
2023-04-14T07:22:13.637Z,6.70
2023-04-14T07:24:40.619Z,6.80
2023-04-14T07:27:07.443Z,6.80
2023-04-14T07:29:35.017Z,6.90
2023-04-14T07:32:02.289Z,7.00
2023-04-14T07:34:29.098Z,7.00
2023-04-14T07:36:56.263Z,7.10
2023-04-14T07:39:23.591Z,7.20
2023-04-14T07:41:52.291Z,7.30
2023-04-14T07:44:19.093Z,7.40
2023-04-14T07:46:46.106Z,7.40
2023-04-14T07:49:12.888Z,7.60
2023-04-14T07:51:39.612Z,7.70
2023-04-14T07:54:06.486Z,7.80
2023-04-14T07:56:33.349Z,7.90
2023-04-14T07:59:00.549Z,8.00
2023-04-14T08:01:27.505Z,8.10
2023-04-14T08:03:54.662Z,8.20
2023-04-14T08:06:21.725Z,8.20
2023-04-14T08:08:48.527Z,8.30
2023-04-14T08:11:15.314Z,8.30
2023-04-14T08:13:43.128Z,8.30
2023-04-14T08:16:10.021Z,8.40
2023-04-14T08:18:37.335Z,8.40
2023-04-14T08:21:04.389Z,8.40
2023-04-14T08:23:31.358Z,8.40
2023-04-14T08:25:58.147Z,8.50
2023-04-14T08:28:24.943Z,8.50
2023-04-14T08:30:51.691Z,8.50
2023-04-14T08:33:18.438Z,8.60
2023-04-14T08:35:45.400Z,8.60
2023-04-14T08:38:12.995Z,8.70
2023-04-14T08:40:42.042Z,8.70
2023-04-14T08:43:10.188Z,8.70
2023-04-14T08:45:38.153Z,8.80
2023-04-14T08:48:05.870Z,8.80
2023-04-14T08:50:48.669Z,8.80
2023-04-14T08:53:17.939Z,8.80
2023-04-14T08:55:45.607Z,8.90
2023-04-14T08:58:12.440Z,8.90
2023-04-14T09:00:41.865Z,8.90
2023-04-14T09:03:09.609Z,8.90
2023-04-14T09:05:37.822Z,8.90
2023-04-14T09:08:04.950Z,8.90
2023-04-14T09:10:32.159Z,8.90
2023-04-14T09:12:59.611Z,9.00
2023-04-14T09:15:28.936Z,9.00
2023-04-14T09:17:56.452Z,9.10
2023-04-14T09:20:38.077Z,9.20
2023-04-14T09:23:09.931Z,9.20
2023-04-14T09:25:38.880Z,9.20
2023-04-14T09:28:05.708Z,9.20
2023-04-14T09:30:33.134Z,9.20
2023-04-14T09:33:04.013Z,9.20
2023-04-14T09:35:47.617Z,9.30
2023-04-14T09:38:15.117Z,9.40
2023-04-14T09:40:43.965Z,9.60
2023-04-14T09:43:27.527Z,9.70
2023-04-14T09:45:55.423Z,9.90
2023-04-14T09:48:22.526Z,9.90
2023-04-14T09:51:01.445Z,9.90
2023-04-14T09:53:33.202Z,9.80
2023-04-14T09:56:02.837Z,9.90
2023-04-14T09:58:36.580Z,10.00
2023-04-14T10:01:15.564Z,10.00
2023-04-14T10:03:44.328Z,10.10
2023-04-14T10:06:19.476Z,10.20
2023-04-14T10:08:53.346Z,10.30
2023-04-14T10:11:32.580Z,10.40
2023-04-14T10:14:04.498Z,10.40
2023-04-14T10:16:31.941Z,10.40
2023-04-14T10:18:59.409Z,10.40
2023-04-14T10:21:28.022Z,10.50
2023-04-14T10:23:58.397Z,10.50
2023-04-14T10:26:26.999Z,10.60
2023-04-14T10:28:56.192Z,10.60
2023-04-14T10:31:42.878Z,10.70
2023-04-14T10:34:12.748Z,10.60
2023-04-14T10:36:40.007Z,10.70
2023-04-14T10:39:07.673Z,10.70
2023-04-14T10:41:48.100Z,10.60
2023-04-14T10:44:32.646Z,10.60
2023-04-14T10:47:05.033Z,10.60
2023-04-14T10:49:39.782Z,10.60
2023-04-14T10:52:06.679Z,10.60
2023-04-14T10:54:53.233Z,10.60
2023-04-14T10:57:24.559Z,10.60
2023-04-14T10:59:55.318Z,10.60
2023-04-14T11:02:55.547Z,10.60
2023-04-14T11:05:22.668Z,10.60
2023-04-14T11:07:55.746Z,10.70
2023-04-14T11:10:22.874Z,10.80
2023-04-14T11:13:04.026Z,10.80
2023-04-14T11:15:50.930Z,10.90
2023-04-14T11:18:34.104Z,10.90
2023-04-14T11:21:10.515Z,11.00
2023-04-14T11:23:38.420Z,11.00
2023-04-14T11:26:07.114Z,11.10
2023-04-14T11:28:36.161Z,11.10
2023-04-14T11:31:05.174Z,11.10
2023-04-14T11:33:34.619Z,11.10
2023-04-14T11:36:03.009Z,11.20
2023-04-14T11:38:30.752Z,11.30
2023-04-14T11:40:58.122Z,11.40
2023-04-14T11:43:25.084Z,11.40
2023-04-14T11:45:52.378Z,11.40
2023-04-14T11:48:20.346Z,11.50
2023-04-14T11:50:48.458Z,11.50
2023-04-14T11:53:17.668Z,11.50
2023-04-14T11:55:49.182Z,11.50
2023-04-14T11:58:21.583Z,11.50
2023-04-14T12:00:49.831Z,11.60
2023-04-14T12:03:17.287Z,11.60
2023-04-14T12:05:44.849Z,11.60
2023-04-14T12:08:12.710Z,11.60
2023-04-14T12:10:41.990Z,11.70
2023-04-14T12:13:11.097Z,11.70
2023-04-14T12:15:40.701Z,11.60
2023-04-14T12:18:09.659Z,11.60
2023-04-14T12:20:45.359Z,11.50
2023-04-14T12:23:12.489Z,11.60
2023-04-14T12:25:40.503Z,11.60
2023-04-14T12:28:08.281Z,11.60
2023-04-14T12:30:36.588Z,11.60
2023-04-14T12:33:12.049Z,11.70
2023-04-14T12:35:40.729Z,11.70
2023-04-14T12:38:14.745Z,11.70
2023-04-14T12:40:47.881Z,11.70
2023-04-14T12:43:16.614Z,11.70
2023-04-14T12:45:48.471Z,11.70
2023-04-14T12:48:17.663Z,11.70
2023-04-14T12:50:44.796Z,11.70
2023-04-14T12:53:25.939Z,11.70
2023-04-14T12:56:14.194Z,11.70
2023-04-14T12:58:42.873Z,11.70
2023-04-14T13:01:13.789Z,11.70
2023-04-14T13:03:45.818Z,11.70
2023-04-14T13:06:17.933Z,11.70
2023-04-14T13:08:49.903Z,11.80
2023-04-14T13:11:17.800Z,11.90
2023-04-14T13:13:45.662Z,11.90
2023-04-14T13:16:16.862Z,11.80
2023-04-14T13:18:53.218Z,11.80
2023-04-14T13:21:20.001Z,11.80
2023-04-14T13:23:46.774Z,11.80
2023-04-14T13:26:13.610Z,11.80
2023-04-14T13:28:40.559Z,11.70
2023-04-14T13:31:07.520Z,11.70
2023-04-14T13:33:34.411Z,11.70
2023-04-14T13:36:03.033Z,11.70
2023-04-14T13:38:30.100Z,11.70
2023-04-14T13:40:56.942Z,11.70
2023-04-14T13:43:24.689Z,11.80
2023-04-14T13:45:52.004Z,11.90
2023-04-14T13:48:19.210Z,11.90
2023-04-14T13:50:46.047Z,12.00
2023-04-14T13:53:12.845Z,12.20
2023-04-14T13:55:39.639Z,12.30
2023-04-14T13:58:06.638Z,12.40
2023-04-14T14:00:33.534Z,12.40
2023-04-14T14:03:00.792Z,12.40
2023-04-14T14:05:27.898Z,12.50
2023-04-14T14:07:56.180Z,12.40
2023-04-14T14:10:23.041Z,12.40
2023-04-14T14:12:49.922Z,12.40
2023-04-14T14:15:16.824Z,12.50
2023-04-14T14:17:43.704Z,12.50
2023-04-14T14:20:10.659Z,12.50
2023-04-14T14:22:37.364Z,12.50
2023-04-14T14:25:17.859Z,12.40
2023-04-14T14:27:46.008Z,12.40
2023-04-14T14:30:13.107Z,12.30
2023-04-14T14:32:39.998Z,12.40
2023-04-14T14:35:07.030Z,12.40
2023-04-14T14:37:33.835Z,12.30
2023-04-14T14:40:01.031Z,12.30
2023-04-14T14:42:27.800Z,12.30
2023-04-14T14:44:54.549Z,12.20
2023-04-14T14:47:21.542Z,12.40
2023-04-14T14:49:59.069Z,12.60
2023-04-14T14:52:31.438Z,12.80
2023-04-14T14:54:58.274Z,13.00
2023-04-14T14:57:25.801Z,13.10
2023-04-14T14:59:54.650Z,13.20
2023-04-14T15:02:22.302Z,13.20
2023-04-14T15:04:49.633Z,13.30
2023-04-14T15:07:16.559Z,13.40
2023-04-14T15:09:43.567Z,13.60
2023-04-14T15:12:10.464Z,13.70
2023-04-14T15:14:37.332Z,13.80
2023-04-14T15:17:04.234Z,13.90
2023-04-14T15:19:31.233Z,14.00
2023-04-14T15:22:05.069Z,14.20
2023-04-14T15:24:32.081Z,14.40
2023-04-14T15:26:58.935Z,14.50
2023-04-14T15:29:26.695Z,14.60
2023-04-14T15:31:53.721Z,14.50
2023-04-14T15:34:21.433Z,14.40
2023-04-14T15:36:48.435Z,14.20
2023-04-14T15:39:15.356Z,14.10
2023-04-14T15:41:42.206Z,13.90
2023-04-14T15:44:08.982Z,13.80
2023-04-14T15:46:35.901Z,13.70
2023-04-14T15:49:02.667Z,13.60
2023-04-14T15:51:29.413Z,13.50
2023-04-14T15:53:56.184Z,13.40
2023-04-14T15:56:23.544Z,13.30
2023-04-14T15:58:51.435Z,13.20
2023-04-14T16:01:18.314Z,13.20
2023-04-14T16:03:45.225Z,13.30
2023-04-14T16:06:12.265Z,13.60
2023-04-14T16:08:39.183Z,13.90
2023-04-14T16:11:05.981Z,14.20
2023-04-14T16:13:33.103Z,14.50
2023-04-14T16:16:00.051Z,14.70
2023-04-14T16:18:27.097Z,14.80
2023-04-14T16:20:53.915Z,14.90
2023-04-14T16:23:20.754Z,15.20
2023-04-14T16:25:50.620Z,15.30
2023-04-14T16:28:17.574Z,15.40
2023-04-14T16:30:45.855Z,15.30
2023-04-14T16:33:12.778Z,15.30
2023-04-14T16:35:39.816Z,15.50
2023-04-14T16:38:09.209Z,15.50
2023-04-14T16:40:37.291Z,15.40
2023-04-14T16:43:04.703Z,15.50
2023-04-14T16:45:32.392Z,15.50
2023-04-14T16:47:59.551Z,15.40
2023-04-14T16:50:27.234Z,15.30
2023-04-14T16:52:54.228Z,15.00
2023-04-14T16:55:21.132Z,14.70
2023-04-14T16:57:47.961Z,14.40
2023-04-14T17:00:15.333Z,14.10
2023-04-14T17:02:42.525Z,14.10
2023-04-14T17:05:11.213Z,14.00
2023-04-14T17:07:38.235Z,13.90
2023-04-14T17:10:05.378Z,13.90
2023-04-14T17:12:32.233Z,13.80
2023-04-14T17:15:00.263Z,13.70
2023-04-14T17:17:28.587Z,13.70
2023-04-14T17:19:56.921Z,13.70
2023-04-14T17:22:24.545Z,13.60
2023-04-14T17:24:52.108Z,13.50
2023-04-14T17:27:19.413Z,13.30
2023-04-14T17:29:46.461Z,13.20
2023-04-14T17:32:13.609Z,13.10
2023-04-14T17:34:41.083Z,13.00
2023-04-14T17:37:08.092Z,12.90
2023-04-14T17:39:35.040Z,12.90
2023-04-14T17:42:02.160Z,12.80
2023-04-14T17:44:33.637Z,12.70
2023-04-14T17:47:02.952Z,12.60
2023-04-14T17:49:30.148Z,12.50
2023-04-14T17:51:57.182Z,12.40
2023-04-14T17:54:24.077Z,12.40
2023-04-14T17:56:51.252Z,12.30
2023-04-14T17:59:18.479Z,12.20
2023-04-14T18:01:45.966Z,12.10
2023-04-14T18:04:12.978Z,12.10
2023-04-14T18:06:40.394Z,12.00
2023-04-14T18:09:07.529Z,12.00
2023-04-14T18:11:34.636Z,11.90
2023-04-14T18:14:01.587Z,11.80
2023-04-14T18:16:28.610Z,11.80
2023-04-14T18:18:55.511Z,11.70
2023-04-14T18:21:22.883Z,11.70
2023-04-14T18:28:49.256Z,11.50
2023-04-14T18:31:16.270Z,11.40
2023-04-14T18:33:43.319Z,11.30
2023-04-14T18:36:10.277Z,11.30
2023-04-14T18:38:37.457Z,11.20
2023-04-14T18:41:05.327Z,11.10
2023-04-14T18:43:33.176Z,11.10
2023-04-14T18:46:00.186Z,11.00
2023-04-14T18:48:27.581Z,11.00
2023-04-14T18:51:00.171Z,10.90
2023-04-14T18:53:27.482Z,10.90
2023-04-14T18:55:54.497Z,10.80
2023-04-14T18:58:21.798Z,10.80
2023-04-14T19:00:48.604Z,10.70
2023-04-14T19:03:15.561Z,10.70
2023-04-14T19:05:42.470Z,10.60
2023-04-14T19:08:09.346Z,10.50
2023-04-14T19:10:36.488Z,10.50
2023-04-14T19:13:04.752Z,10.40
2023-04-14T19:15:32.184Z,10.30
2023-04-14T19:17:59.207Z,10.20
2023-04-14T19:20:26.797Z,10.10
2023-04-14T19:22:53.673Z,10.10
2023-04-14T19:25:20.610Z,10.00
2023-04-14T19:27:47.447Z,10.00
2023-04-14T19:30:14.269Z,9.90
2023-04-14T19:32:41.772Z,9.80
2023-04-14T19:35:10.009Z,9.70
2023-04-14T19:37:38.391Z,9.70
2023-04-14T19:40:06.288Z,9.60
2023-04-14T19:42:33.486Z,9.50
2023-04-14T19:45:00.735Z,9.50
2023-04-14T19:47:27.743Z,9.40
2023-04-14T19:49:55.134Z,9.40
2023-04-14T19:52:22.378Z,9.30
2023-04-14T19:54:49.846Z,9.20
2023-04-14T19:57:16.912Z,9.20
2023-04-14T19:59:44.345Z,9.20
2023-04-14T20:02:13.146Z,9.20
2023-04-14T20:04:40.614Z,9.10
2023-04-14T20:07:07.691Z,9.10
2023-04-14T20:09:34.769Z,9.00
2023-04-14T20:12:04.376Z,9.00
2023-04-14T20:14:31.371Z,8.90
2023-04-14T20:16:59.356Z,8.80
2023-04-14T20:19:26.260Z,8.80
2023-04-14T20:21:53.252Z,8.70
2023-04-14T20:24:20.050Z,8.70
2023-04-14T20:26:46.849Z,8.60
2023-04-14T20:29:15.931Z,8.60
2023-04-14T20:31:44.208Z,8.50
2023-04-14T20:34:12.084Z,8.50
2023-04-14T20:36:38.946Z,8.40
2023-04-14T20:39:06.194Z,8.40
2023-04-14T20:41:33.979Z,8.40
2023-04-14T20:44:01.387Z,8.30
2023-04-14T20:46:28.805Z,8.30
2023-04-14T20:48:56.641Z,8.30
2023-04-14T20:51:23.591Z,8.20
2023-04-14T20:53:50.809Z,8.10
2023-04-14T20:56:17.881Z,8.20
2023-04-14T20:58:45.639Z,8.10
2023-04-14T21:01:12.684Z,8.10
2023-04-14T21:03:40.111Z,8.00
2023-04-14T21:06:07.178Z,8.00
2023-04-14T21:08:34.051Z,8.00
2023-04-14T21:11:15.869Z,7.90
2023-04-14T21:15:42.420Z,7.90
2023-04-14T21:16:35.852Z,7.80
2023-04-14T21:19:04.156Z,7.80
2023-04-14T21:21:31.777Z,7.80
2023-04-14T21:23:58.952Z,7.80
2023-04-14T21:26:28.425Z,7.70
2023-04-14T21:28:55.313Z,7.70
2023-04-14T21:31:22.241Z,7.70
2023-04-14T21:33:49.079Z,7.70
2023-04-14T21:36:15.969Z,7.60
2023-04-14T21:38:43.423Z,7.60
2023-04-14T21:41:10.765Z,7.50
2023-04-14T21:43:40.938Z,7.50
2023-04-14T21:46:08.067Z,7.50
2023-04-14T21:48:34.999Z,7.40
2023-04-14T21:51:03.364Z,7.40
2023-04-14T21:53:31.356Z,7.40
2023-04-14T21:56:10.397Z,7.30
2023-04-14T21:58:39.299Z,7.30
2023-04-14T22:01:07.792Z,7.30
2023-04-14T22:03:37.415Z,7.20
2023-04-14T22:06:04.807Z,7.20
2023-04-14T22:08:32.296Z,7.20
2023-04-14T22:10:59.096Z,7.10
2023-04-14T22:13:26.348Z,7.10
2023-04-14T22:15:53.142Z,7.00
2023-04-14T22:18:19.872Z,7.00
2023-04-14T22:20:46.652Z,7.00
2023-04-14T22:23:13.458Z,6.90
2023-04-14T22:25:40.333Z,6.90
2023-04-14T22:28:07.411Z,6.90
2023-04-14T22:30:35.248Z,6.80
2023-04-14T22:33:02.462Z,6.80
2023-04-14T22:35:29.949Z,6.80
2023-04-14T22:37:57.040Z,6.70
2023-04-14T22:40:24.098Z,6.70
2023-04-14T22:42:50.799Z,6.70
2023-04-14T22:45:17.939Z,6.70
2023-04-14T22:47:44.804Z,6.60
2023-04-14T22:50:11.764Z,6.60
2023-04-14T22:52:38.579Z,6.60
2023-04-14T22:55:05.685Z,6.60
2023-04-14T22:57:33.157Z,6.60
2023-04-14T22:59:59.990Z,6.60
2023-04-14T23:02:27.577Z,6.50
2023-04-14T23:04:54.516Z,6.50
2023-04-14T23:07:21.364Z,6.40
2023-04-14T23:09:48.549Z,6.40
2023-04-14T23:12:16.008Z,6.30
2023-04-14T23:14:42.809Z,6.30
2023-04-14T23:17:09.649Z,6.30
2023-04-14T23:19:36.589Z,6.30
2023-04-14T23:22:04.353Z,6.30
2023-04-14T23:24:31.356Z,6.20
2023-04-14T23:26:58.127Z,6.20
2023-04-14T23:29:24.888Z,6.20
2023-04-14T23:31:51.810Z,6.10
2023-04-14T23:34:18.688Z,6.10
2023-04-14T23:36:49.455Z,6.10
2023-04-14T23:39:16.306Z,6.10
2023-04-14T23:41:43.006Z,6.00
2023-04-14T23:44:09.734Z,6.10
2023-04-14T23:46:36.530Z,6.10
2023-04-14T23:49:23.592Z,6.00
2023-04-14T23:51:50.111Z,6.00
2023-04-14T23:54:16.856Z,5.90
2023-04-14T23:56:43.610Z,5.90
2023-04-14T23:59:10.441Z,5.80
